• Join FlightAware (Why Join?)
  • Login
  • US Flag 
07:48PM EDT


 

Airport Tracker/Info


-or-


 

Live Flight TrackerFlight Track Log ✈ SKQ221 ✈ 01-May-2013 ✈ KPWK - KCMH

Flight Track Log - Related Links

Times and Time Zones

All times are in EDT time to prevent confusion due to time zone crossing. See the SKQ221 flight status page for this flight to view local times or setup timezone preferences in your user account.

Time Position Orientation Groundspeed Altitude Reporting Facility
EDT Latitude Longitude Course Direction KTS MPH feet Rate Location/Type
11:22PM 42.1333 -87.8833 66° East 139 160 1,400  Level Chicago TRACON
11:23PM 42.1500 -87.8333 66° East 149 171 2,200 720 Climbing Chicago TRACON
11:24PM 42.1633 -87.8089 54° Northeast 151 174 2,600 720 Climbing Chicago Center
11:25PM 42.1617 -87.7542 92° East 147 169 3,500 780 Climbing Chicago Center
11:26PM 42.1583 -87.6981 95° East 148 170 4,200 660 Climbing Chicago Center
11:27PM 42.1581 -87.6389 90° East 153 176 4,900 720 Climbing Chicago Center
11:28PM 42.1397 -87.5775 112° Southeast 148 170 5,700 540 Climbing Chicago Center
11:29PM 42.1183 -87.5267 120° Southeast 155 178 6,000 180 Climbing Chicago Center
11:29PM 42.1000 -87.5000 133° Southeast 169 194 6,000  Level Chicago TRACON
11:30PM 42.0833 -87.4500 114° Southeast 177 204 6,000  Level Chicago TRACON
11:31PM 42.0667 -87.4000 114° Southeast 179 206 6,000  Level Chicago TRACON
11:32PM 42.0456 -87.3567 123° Southeast 176 203 6,000 -60 Level Chicago Center
11:33PM 42.0211 -87.2989 120° Southeast 176 203 5,900 -60 Descending Chicago Center
11:34PM 41.9956 -87.2403 120° Southeast 180 207 5,900  Level Chicago Center
11:35PM 41.9714 -87.1842 120° Southeast 175 201 5,900  Level Chicago Center
11:36PM 41.9469 -87.1269 120° Southeast 175 201 5,900  Level Chicago Center
11:37PM 41.9219 -87.0686 120° Southeast 178 205 5,900 180 Level Chicago Center
11:38PM 41.8917 -87.0003 121° Southeast 179 206 6,300 480 Climbing Chicago Center
11:39PM 41.8683 -86.9453 120° Southeast 173 199 6,900 300 Climbing Chicago Center
11:40PM 41.8436 -86.8881 120° Southeast 175 201 7,000  Climbing Chicago Center
11:41PM 41.8175 -86.8281 120° Southeast 183 211 7,000  Level Chicago Center
11:42PM 41.7919 -86.7681 120° Southeast 185 213 7,000  Level Chicago Center
11:43PM 41.7642 -86.7081 122° Southeast 188 216 7,000  Level Chicago Center
11:44PM 41.7378 -86.6461 120° Southeast 187 215 7,000  Level Chicago Center
11:45PM 41.7114 -86.5850 120° Southeast 188 216 7,000  Level Chicago Center
11:46PM 41.6867 -86.5269 120° Southeast 182 209 7,000  Level Chicago Center
11:47PM 41.6603 -86.4669 120° Southeast 184 212 7,000  Level Chicago Center
11:48PM 41.6342 -86.4094 121° Southeast 182 209 7,000  Level Chicago Center
11:49PM 41.6097 -86.3508 119° Southeast 181 208 7,000  Level Chicago Center
11:50PM 41.5844 -86.2936 121° Southeast 179 206 7,000  Level Chicago Center
11:51PM 41.5597 -86.2369 120° Southeast 175 201 7,000  Level Chicago Center
11:52PM 41.5339 -86.1789 121° Southeast 179 206 7,000  Level Chicago Center
11:53PM 41.5083 -86.1233 122° Southeast 176 203 7,000  Level Chicago Center
11:54PM 41.4783 -86.0547 120° Southeast 178 205 7,000  Level Chicago Center
11:55PM 41.4531 -85.9986 121° Southeast 177 204 7,000  Level Chicago Center
11:56PM 41.4283 -85.9406 120° Southeast 180 207 7,000  Level Chicago Center
11:57PM 41.4028 -85.8856 122° Southeast 176 203 7,000  Level Chicago Center
11:58PM 41.3783 -85.8308 121° Southeast 173 199 7,000  Level Chicago Center
11:59PM 41.3544 -85.7764 120° Southeast 172 198 7,000  Level Chicago Center
12:00AM 41.3294 -85.7211 121° Southeast 174 200 7,000  Level Chicago Center
12:01AM 41.3053 -85.6675 121° Southeast 171 197 7,000  Level Chicago Center
12:02AM 41.2808 -85.6119 120° Southeast 174 200 7,000  Level Chicago Center
12:03AM 41.2569 -85.5572 120° Southeast 174 200 7,000  Level Chicago Center
12:04AM 41.2325 -85.5036 121° Southeast 172 198 7,000  Level Chicago Center
12:05AM 41.2072 -85.4483 121° Southeast 174 200 7,000  Level Chicago Center
12:06AM 41.1836 -85.3956 121° Southeast 169 194 7,000  Level Chicago Center
12:07AM 41.1581 -85.3383 121° Southeast 177 204 7,000  Level Chicago Center
12:08AM 41.1339 -85.2853 121° Southeast 173 199 7,000  Level Chicago Center
12:09AM 41.1033 -85.2208 122° Southeast 172 198 7,000  Level Chicago Center
12:10AM 41.0794 -85.1650 120° Southeast 173 199 7,000  Level Chicago Center
12:11AM 41.0553 -85.1122 121° Southeast 172 198 7,000  Level Chicago Center
12:12AM 41.0297 -85.0597 123° Southeast 170 196 7,000  Level Chicago Center
12:13AM 41.0056 -85.0036 120° Southeast 174 200 7,000  Level Chicago Center
12:14AM 40.9797 -84.9497 122° Southeast 174 200 7,000  Level Chicago Center
12:15AM 40.9547 -84.8956 121° Southeast 174 200 7,000  Level Chicago Center
12:16AM 40.9303 -84.8422 121° Southeast 172 198 7,000  Level Chicago Center
12:17AM 40.9067 -84.7886 120° Southeast 171 197 7,000  Level Chicago Center
12:18AM 40.8814 -84.7347 122° Southeast 171 197 7,000  Level Chicago Center
12:19AM 40.8567 -84.6822 122° Southeast 170 196 7,000  Level Chicago Center
12:20AM 40.8319 -84.6289 121° Southeast 171 197 7,000  Level Chicago Center
12:21AM 40.8075 -84.5756 121° Southeast 170 196 7,000  Level Chicago Center
12:22AM 40.7828 -84.5222 121° Southeast 171 197 7,000  Level Chicago Center
12:24AM 40.7483 -84.4483 122° Southeast 170 196 7,000  Level Chicago Center
12:25AM 40.7239 -84.3947 121° Southeast 170 196 7,000 60 Level Chicago Center
12:25AM 40.7061 -84.3672 130° Southeast 170 196 7,100 60 Climbing Indianapolis Center
12:26AM 40.7008 -84.3553 120° Southeast 170 196 7,100  Level Indianapolis Center
12:27AM 40.6739 -84.2967 121° Southeast 171 197 7,100  Level Indianapolis Center
12:28AM 40.6522 -84.2525 123° Southeast 171 197 7,100  Level Indianapolis Center
12:28AM 40.6494 -84.2394 106° East 170 196 7,100  Level Indianapolis Center
12:29AM 40.6256 -84.1939 125° Southeast 171 197 7,100  Level Indianapolis Center
12:29AM 40.6228 -84.1861 115° Southeast 171 197 7,100  Level Indianapolis Center
12:30AM 40.6003 -84.1408 123° Southeast 172 198 7,100  Level Indianapolis Center
12:30AM 40.5975 -84.1333 116° Southeast 169 194 7,100  Level Indianapolis Center
12:31AM 40.5750 -84.0881 123° Southeast 172 198 7,100  Level Indianapolis Center
12:31AM 40.5711 -84.0792 120° Southeast 174 200 7,100  Level Indianapolis Center
12:32AM 40.5497 -84.0353 123° Southeast 173 199 7,100  Level Indianapolis Center
12:32AM 40.5461 -84.0239 113° Southeast 175 201 7,100  Level Indianapolis Center
12:33AM 40.5244 -83.9825 125° Southeast 173 199 7,100  Level Indianapolis Center
12:33AM 40.5211 -83.9708 111° Southeast 171 197 7,100  Level Indianapolis Center
12:34AM 40.4992 -83.9300 125° Southeast 172 198 7,100  Level Indianapolis Center
12:34AM 40.4947 -83.9164 113° Southeast 173 199 7,100  Level Indianapolis Center
12:35AM 40.4736 -83.8772 125° Southeast 171 197 7,100  Level Indianapolis Center
12:35AM 40.4700 -83.8625 108° East 173 199 7,100  Level Indianapolis Center
12:36AM 40.4447 -83.8158 125° Southeast 174 200 7,100  Level Indianapolis Center
12:37AM 40.4197 -83.7606 121° Southeast 172 198 7,100  Level Indianapolis Center
12:38AM 40.3914 -83.7003 122° Southeast 175 201 7,100 -60 Level Indianapolis Center
12:39AM 40.3686 -83.6556 124° Southeast 171 197 7,000 -300 Descending Indianapolis Center
12:40AM 40.3414 -83.6003 123° Southeast 179 206 6,600 -420 Descending Indianapolis Center
12:41AM 40.3086 -83.5331 123° Southeast 192 221 6,200 -480 Descending Indianapolis Center
12:42AM 40.2794 -83.4722 122° Southeast 192 221 5,700 -480 Descending Indianapolis Center
12:43AM 40.2503 -83.4111 122° Southeast 187 215 5,300 -480 Descending Indianapolis Center
12:44AM 40.2264 -83.3575 120° Southeast 183 211 4,700 -540 Descending Indianapolis Center
12:45AM 40.1992 -83.3022 123° Southeast 180 207 4,300 -600 Descending Indianapolis Center
12:46AM 40.1722 -83.2469 123° Southeast 179 206 3,600 -600 Descending Indianapolis Center
12:47AM 40.1453 -83.1917 123° Southeast 178 205 3,200 -300 Descending Indianapolis Center
12:48AM 40.1078 -83.1636 150° Southeast 168 193 3,100 -60 Descending Indianapolis Center
12:49AM 40.0633 -83.1514 168° South 154 177 3,100  Level Indianapolis Center
12:50AM 40.0297 -83.1256 150° Southeast 142 163 3,100  Level Indianapolis Center
12:51AM 40.0050 -83.0875 130° Southeast 142 163 3,100 -120 Level Indianapolis Center
12:52AM 40.0019 -83.0408 95° East 129 148 2,900 -480 Descending Indianapolis Center
12:53AM 40.0006 -83.0025 93° East 120 138 2,300 -720 Descending Indianapolis Center
12:53AM 39.9997 -82.9925 96° East 126 145 2,100 -600 Descending Indianapolis Center
12:54AM 39.9989 -82.9642 92° East 107 123 1,700 -540 Descending Indianapolis Center
12:55AM 39.9969 -82.9314 94° East 90 104 1,200 -420 Descending Indianapolis Center
12:55AM 39.9961 -82.9269 104° East 103 119 1,200  Level Indianapolis Center
12:57AM 39.9980 -82.8920 123° Southeast  Level Estimated
01:04AM 39.9980 -82.8920 123° Southeast  Level Estimated